createdAt,value
2023-03-16T00:02:01.546Z,99746.78
2023-03-16T00:04:47.573Z,99748.97
2023-03-16T00:07:30.694Z,99750.84
2023-03-16T00:10:10.840Z,99741.66
2023-03-16T00:12:54.649Z,99746.50
2023-03-16T00:15:35.474Z,99742.38
2023-03-16T00:18:21.597Z,99743.69
2023-03-16T00:21:02.833Z,99758.38
2023-03-16T00:23:42.354Z,99752.88
2023-03-16T00:26:23.186Z,99753.72
2023-03-16T00:29:08.770Z,99758.72
2023-03-16T00:31:52.482Z,99754.88
2023-03-16T00:34:30.191Z,99749.38
2023-03-16T00:37:18.685Z,99757.72
2023-03-16T00:39:59.891Z,99754.72
2023-03-16T00:42:44.648Z,99759.72
2023-03-16T00:45:23.726Z,99766.03
2023-03-16T00:48:09.757Z,99769.03
2023-03-16T00:50:50.843Z,99764.19
2023-03-16T00:53:30.456Z,99779.31
2023-03-16T00:56:17.711Z,99774.63
2023-03-16T00:59:05.911Z,99777.94
2023-03-16T01:01:47.001Z,99782.56
2023-03-16T01:04:32.702Z,99787.19
2023-03-16T01:07:16.579Z,99784.41
2023-03-16T01:10:02.946Z,99788.59
2023-03-16T01:12:46.214Z,99784.22
2023-03-16T01:15:27.376Z,99795.59
2023-03-16T01:18:07.601Z,99795.31
2023-03-16T01:20:50.592Z,99789.56
2023-03-16T01:23:36.812Z,99792.38
2023-03-16T01:26:12.898Z,99794.72
2023-03-16T01:28:53.738Z,99788.88
2023-03-16T01:31:39.685Z,99790.84
2023-03-16T01:34:31.895Z,99787.75
2023-03-16T01:37:12.677Z,99785.78
2023-03-16T01:40:07.958Z,99781.34
2023-03-16T01:43:02.526Z,99780.34
2023-03-16T01:46:02.596Z,99788.00
2023-03-16T01:48:57.711Z,99787.63
2023-03-16T01:51:59.238Z,99789.97
2023-03-16T01:54:51.334Z,99800.22
2023-03-16T01:57:39.643Z,99795.88
2023-03-16T02:00:24.020Z,99797.16
2023-03-16T02:03:25.681Z,99808.00
2023-03-16T02:06:23.356Z,99812.50
2023-03-16T02:09:04.319Z,99810.16
2023-03-16T02:11:44.780Z,99803.00
2023-03-16T02:14:28.506Z,99809.63
2023-03-16T02:17:14.495Z,99811.81
2023-03-16T02:20:13.693Z,99818.31
2023-03-16T02:22:57.473Z,99825.69
2023-03-16T02:25:54.425Z,99833.78
2023-03-16T02:28:48.745Z,99833.66
2023-03-16T02:31:27.746Z,99836.34
2023-03-16T02:34:11.471Z,99843.09
2023-03-16T02:36:57.729Z,99842.84
2023-03-16T02:39:36.834Z,99844.38
2023-03-16T02:42:19.003Z,99849.66
2023-03-16T02:45:06.307Z,99857.41
2023-03-16T02:47:47.894Z,99847.28
2023-03-16T02:50:47.701Z,99857.16
2023-03-16T02:53:32.456Z,99851.88
2023-03-16T02:56:09.576Z,99866.66
2023-03-16T02:58:57.396Z,99864.75
2023-03-16T03:01:35.086Z,99870.63
2023-03-16T03:04:23.551Z,99869.25
2023-03-16T03:07:05.034Z,99868.28
2023-03-16T03:10:04.318Z,99869.94
2023-03-16T03:12:51.164Z,99876.75
2023-03-16T03:15:30.910Z,99883.41
2023-03-16T03:18:17.577Z,99887.97
2023-03-16T03:20:55.454Z,99893.44
2023-03-16T03:23:42.309Z,99903.34
2023-03-16T03:26:21.345Z,99902.66
2023-03-16T03:29:04.938Z,99909.31
2023-03-16T03:31:48.434Z,99911.97
2023-03-16T03:34:26.712Z,99911.91
2023-03-16T03:37:04.384Z,99910.13
2023-03-16T03:39:46.312Z,99921.13
2023-03-16T03:42:29.503Z,99920.25
2023-03-16T03:45:14.169Z,99916.78
2023-03-16T03:47:57.630Z,99914.81
2023-03-16T03:50:38.874Z,99921.81
2023-03-16T03:53:35.311Z,99934.72
2023-03-16T03:56:27.394Z,99934.06
2023-03-16T03:59:08.209Z,99937.28
2023-03-16T04:02:12.874Z,99937.31
2023-03-16T04:04:58.084Z,99935.44
2023-03-16T04:07:41.162Z,99931.69
2023-03-16T04:10:31.225Z,99937.13
2023-03-16T04:13:15.886Z,99937.59
2023-03-16T04:16:01.939Z,99935.06
2023-03-16T04:18:50.614Z,99944.28
2023-03-16T04:21:35.580Z,99939.81
2023-03-16T04:24:23.658Z,99938.41
2023-03-16T04:27:08.572Z,99946.34
2023-03-16T04:30:01.593Z,99959.44
2023-03-16T04:32:36.804Z,99964.56
2023-03-16T04:35:13.348Z,99960.06
2023-03-16T04:38:12.201Z,99966.88
2023-03-16T04:41:06.258Z,99971.31
2023-03-16T04:43:53.736Z,99977.66
2023-03-16T04:46:36.057Z,99977.66
2023-03-16T04:49:22.020Z,99975.00
2023-03-16T04:52:05.774Z,99976.22
2023-03-16T04:54:50.450Z,99977.03
2023-03-16T04:57:39.474Z,99987.19
2023-03-16T05:00:25.296Z,99983.00
2023-03-16T05:03:22.941Z,99997.84
2023-03-16T05:06:09.590Z,99994.81
2023-03-16T05:09:08.281Z,99995.94
2023-03-16T05:11:45.992Z,100002.16
2023-03-16T05:14:30.263Z,99997.03
2023-03-16T05:17:22.306Z,100006.50
2023-03-16T05:20:15.862Z,100007.47
2023-03-16T05:23:03.386Z,100005.19
2023-03-16T05:25:49.385Z,100006.19
2023-03-16T05:28:32.545Z,100008.72
2023-03-16T05:31:19.151Z,100004.09
2023-03-16T05:34:04.916Z,100014.63
2023-03-16T05:36:46.383Z,100011.47
2023-03-16T05:39:28.849Z,100014.38
2023-03-16T05:42:10.281Z,100019.19
2023-03-16T05:45:11.528Z,100011.28
2023-03-16T05:48:11.523Z,100024.41
2023-03-16T05:51:09.600Z,100025.41
2023-03-16T05:53:51.128Z,100034.41
2023-03-16T05:56:49.275Z,100035.22
2023-03-16T05:59:39.699Z,100036.41
2023-03-16T06:02:23.621Z,100041.84
2023-03-16T06:05:18.965Z,100041.56
2023-03-16T06:08:03.694Z,100047.78
2023-03-16T06:11:07.937Z,100048.94
2023-03-16T06:13:46.464Z,100049.38
2023-03-16T06:16:39.602Z,100053.78
2023-03-16T06:19:23.776Z,100050.06
2023-03-16T06:22:14.973Z,100062.84
2023-03-16T06:24:54.273Z,100062.41
2023-03-16T06:27:34.722Z,100070.56
2023-03-16T06:30:32.566Z,100073.00
2023-03-16T06:33:15.964Z,100081.09
2023-03-16T06:36:03.981Z,100086.59
2023-03-16T06:38:55.594Z,100095.75
2023-03-16T06:41:38.801Z,100090.19
2023-03-16T06:44:21.708Z,100094.09
2023-03-16T06:47:29.377Z,100102.34
2023-03-16T06:50:09.459Z,100103.38
2023-03-16T06:53:00.229Z,100106.00
2023-03-16T06:55:51.500Z,100106.94
2023-03-16T06:58:35.038Z,100114.78
2023-03-16T07:01:20.268Z,100121.22
2023-03-16T07:03:58.612Z,100125.72
2023-03-16T07:06:48.940Z,100126.00
2023-03-16T07:09:27.957Z,100128.00
2023-03-16T07:12:10.694Z,100130.38
2023-03-16T07:15:00.013Z,100130.63
2023-03-16T07:17:51.638Z,100123.81
2023-03-16T07:20:32.272Z,100130.91
2023-03-16T07:23:13.490Z,100136.50
2023-03-16T07:25:54.856Z,100137.00
2023-03-16T07:28:33.164Z,100141.03
2023-03-16T07:31:25.347Z,100150.44
2023-03-16T07:34:09.842Z,100151.88
2023-03-16T07:36:52.840Z,100148.31
2023-03-16T07:39:46.768Z,100155.59
2023-03-16T07:42:35.651Z,100157.00
2023-03-16T07:45:34.458Z,100163.28
2023-03-16T07:48:25.339Z,100162.75
2023-03-16T07:51:05.015Z,100168.44
2023-03-16T07:53:47.344Z,100162.00
2023-03-16T07:56:49.365Z,100162.59
2023-03-16T07:59:53.814Z,100166.41
2023-03-16T08:02:35.280Z,100164.28
2023-03-16T08:05:15.535Z,100163.16
2023-03-16T08:07:58.551Z,100172.22
2023-03-16T08:10:44.207Z,100175.50
2023-03-16T08:13:38.412Z,100171.03
2023-03-16T08:16:22.348Z,100170.16
2023-03-16T08:19:05.515Z,100175.63
2023-03-16T08:22:01.258Z,100168.41
2023-03-16T08:24:46.839Z,100183.97
2023-03-16T08:27:27.525Z,100178.47
2023-03-16T08:30:12.025Z,100181.66
2023-03-16T08:33:04.601Z,100171.81
2023-03-16T08:35:50.422Z,100175.91
2023-03-16T08:38:32.398Z,100180.91
2023-03-16T08:41:17.160Z,100176.88
2023-03-16T08:44:03.520Z,100173.31
2023-03-16T08:46:45.036Z,100185.00
2023-03-16T08:49:34.287Z,100184.78
2023-03-16T08:52:23.785Z,100190.91
2023-03-16T08:55:03.797Z,100185.63
2023-03-16T08:57:47.179Z,100185.19
2023-03-16T09:00:28.460Z,100185.88
2023-03-16T09:03:07.331Z,100184.94
2023-03-16T09:05:45.252Z,100191.31
2023-03-16T09:08:31.350Z,100194.13
2023-03-16T09:11:21.512Z,100197.78
2023-03-16T09:14:02.828Z,100201.34
2023-03-16T09:16:43.209Z,100195.28
2023-03-16T09:19:20.085Z,100204.63
2023-03-16T09:22:08.601Z,100203.81
2023-03-16T09:24:49.470Z,100197.25
2023-03-16T09:30:29.812Z,100206.03
2023-03-16T09:33:10.381Z,100215.59
2023-03-16T09:35:58.146Z,100211.34
2023-03-16T09:38:37.480Z,100199.78
2023-03-16T09:41:30.924Z,100202.72
2023-03-16T09:44:39.149Z,100215.19
2023-03-16T09:47:16.789Z,100214.22
2023-03-16T09:50:09.910Z,100209.16
2023-03-16T09:53:05.360Z,100209.91
2023-03-16T09:55:57.454Z,100218.75
2023-03-16T09:58:47.182Z,100209.53
2023-03-16T10:01:47.144Z,100225.69
2023-03-16T10:04:45.172Z,100223.38
2023-03-16T10:07:48.694Z,100228.44
2023-03-16T10:10:53.553Z,100230.78
2023-03-16T10:14:14.261Z,100224.28
2023-03-16T10:17:01.090Z,100230.59
2023-03-16T10:19:49.859Z,100227.41
2023-03-16T10:22:41.114Z,100221.19
2023-03-16T10:25:52.333Z,100231.03
2023-03-16T10:28:40.996Z,100221.38
2023-03-16T10:31:31.459Z,100229.66
2023-03-16T10:34:15.618Z,100226.78
2023-03-16T10:36:58.452Z,100224.94
2023-03-16T10:39:44.278Z,100233.06
2023-03-16T10:42:27.548Z,100234.69
2023-03-16T10:45:20.069Z,100234.16
2023-03-16T10:48:10.335Z,100220.22
2023-03-16T10:50:54.619Z,100233.94
2023-03-16T10:53:42.372Z,100226.06
2023-03-16T10:56:38.489Z,100228.13
2023-03-16T10:59:49.059Z,100221.31
2023-03-16T11:02:30.525Z,100217.56
2023-03-16T11:05:28.285Z,100208.25
2023-03-16T11:08:18.893Z,100208.66
2023-03-16T11:11:02.818Z,100200.06
2023-03-16T11:13:54.290Z,100211.72
2023-03-16T11:16:52.372Z,100211.91
2023-03-16T11:19:59.688Z,100215.88
2023-03-16T11:22:42.243Z,100214.06
2023-03-16T11:25:30.790Z,100208.66
2023-03-16T11:28:28.231Z,100200.09
2023-03-16T11:31:35.145Z,100206.94
2023-03-16T11:34:18.891Z,100204.81
2023-03-16T11:37:03.219Z,100208.03
2023-03-16T11:40:06.562Z,100197.22
2023-03-16T11:42:47.071Z,100190.75
2023-03-16T11:45:45.755Z,100190.72
2023-03-16T11:48:36.792Z,100191.28
2023-03-16T11:51:44.619Z,100181.00
2023-03-16T11:54:59.956Z,100185.41
2023-03-16T11:58:04.613Z,100191.56
2023-03-16T12:00:56.491Z,100188.91
2023-03-16T12:04:18.470Z,100181.38
2023-03-16T12:07:13.199Z,100179.41
2023-03-16T12:10:26.834Z,100181.41
2023-03-16T12:13:33.824Z,100176.81
2023-03-16T12:16:25.170Z,100178.34
2023-03-16T12:19:10.796Z,100175.41
2023-03-16T12:21:53.699Z,100171.41
2023-03-16T12:24:37.351Z,100172.34
2023-03-16T12:27:39.163Z,100182.69
2023-03-16T12:30:37.200Z,100168.06
2023-03-16T12:33:47.526Z,100170.06
2023-03-16T12:37:02.832Z,100174.38
2023-03-16T12:39:41.268Z,100173.19
2023-03-16T12:42:49.993Z,100168.78
2023-03-16T12:45:46.248Z,100177.34
2023-03-16T12:48:46.290Z,100173.16
2023-03-16T12:51:21.462Z,100164.75
2023-03-16T12:54:03.286Z,100184.66
2023-03-16T12:56:50.651Z,100189.56
2023-03-16T12:59:46.892Z,100180.00
2023-03-16T13:02:45.564Z,100183.44
2023-03-16T13:05:51.038Z,100180.44
2023-03-16T13:08:26.101Z,100184.94
2023-03-16T13:11:30.264Z,100181.78
2023-03-16T13:14:33.810Z,100157.47
2023-03-16T13:17:25.129Z,100182.06
2023-03-16T13:20:42.743Z,100178.31
2023-03-16T13:23:31.623Z,100169.94
2023-03-16T13:26:22.009Z,100170.44
2023-03-16T13:29:08.039Z,100171.03
2023-03-16T13:31:55.283Z,100168.47
2023-03-16T13:34:51.814Z,100177.03
2023-03-16T13:37:42.687Z,100167.25
2023-03-16T13:40:38.039Z,100178.25
2023-03-16T13:43:22.195Z,100172.50
2023-03-16T13:46:05.395Z,100172.66
2023-03-16T13:48:49.093Z,100179.06
2023-03-16T13:51:36.079Z,100175.25
2023-03-16T13:54:37.832Z,100184.66
2023-03-16T13:57:20.633Z,100178.00
2023-03-16T14:00:06.830Z,100176.63
2023-03-16T14:02:55.708Z,100176.44
2023-03-16T14:05:40.702Z,100176.78
2023-03-16T14:08:29.851Z,100187.16
2023-03-16T14:11:09.042Z,100193.78
2023-03-16T14:14:00.244Z,100181.19
2023-03-16T14:16:40.441Z,100187.78
2023-03-16T14:19:38.227Z,100191.06
2023-03-16T14:22:19.028Z,100193.63
2023-03-16T14:25:05.814Z,100183.91
2023-03-16T14:28:05.692Z,100186.25
2023-03-16T14:30:55.222Z,100192.69
2023-03-16T14:33:42.119Z,100189.81
2023-03-16T14:36:22.115Z,100189.09
2023-03-16T14:39:09.636Z,100188.94
2023-03-16T14:41:49.922Z,100194.88
2023-03-16T14:44:40.796Z,100200.47
2023-03-16T14:47:28.196Z,100201.94
2023-03-16T14:50:26.165Z,100199.91
2023-03-16T14:53:07.758Z,100191.25
2023-03-16T14:55:48.498Z,100206.09
2023-03-16T14:58:26.172Z,100214.34
2023-03-16T15:01:14.990Z,100217.66
2023-03-16T15:03:53.546Z,100218.00
2023-03-16T15:06:32.908Z,100212.78
2023-03-16T15:09:31.639Z,100207.50
2023-03-16T15:12:26.705Z,100213.25
2023-03-16T15:15:17.722Z,100214.81
2023-03-16T15:17:58.060Z,100208.28
2023-03-16T15:20:50.062Z,100211.50
2023-03-16T15:23:34.369Z,100220.38
2023-03-16T15:26:21.945Z,100215.09
2023-03-16T15:29:07.530Z,100221.06
2023-03-16T15:31:47.979Z,100225.97
2023-03-16T15:34:30.639Z,100225.66
2023-03-16T15:37:23.462Z,100223.97
2023-03-16T15:40:04.834Z,100233.50
2023-03-16T15:42:47.983Z,100237.69
2023-03-16T15:45:31.506Z,100237.66
2023-03-16T15:48:23.551Z,100233.28
2023-03-16T15:51:16.229Z,100242.16
2023-03-16T15:53:59.565Z,100245.28
2023-03-16T15:56:50.996Z,100250.19
2023-03-16T15:59:38.167Z,100248.16
2023-03-16T16:02:35.186Z,100253.41
2023-03-16T16:05:20.922Z,100252.13
2023-03-16T16:08:09.162Z,100250.00
2023-03-16T16:11:12.159Z,100258.03
2023-03-16T16:13:49.404Z,100263.16
2023-03-16T16:16:37.371Z,100265.25
2023-03-16T16:19:27.841Z,100272.59
2023-03-16T16:22:13.190Z,100276.44
2023-03-16T16:24:56.990Z,100277.09
2023-03-16T16:27:32.350Z,100277.75
2023-03-16T16:30:14.492Z,100287.59
2023-03-16T16:32:50.271Z,100285.66
2023-03-16T16:35:31.961Z,100279.56
2023-03-16T16:38:16.142Z,100291.22
2023-03-16T16:40:58.593Z,100296.06
2023-03-16T16:43:47.753Z,100302.06
2023-03-16T16:46:29.364Z,100305.13
2023-03-16T16:49:23.175Z,100305.31
2023-03-16T16:52:01.800Z,100303.34
2023-03-16T16:54:37.019Z,100311.94
2023-03-16T16:57:25.208Z,100312.03
2023-03-16T17:00:10.138Z,100315.75
2023-03-16T17:02:57.563Z,100325.09
2023-03-16T17:05:35.484Z,100327.56
2023-03-16T17:08:25.122Z,100335.59
2023-03-16T17:11:07.210Z,100335.47
2023-03-16T17:13:48.338Z,100329.31
2023-03-16T17:16:33.361Z,100336.63
2023-03-16T17:19:23.346Z,100343.47
2023-03-16T17:22:02.542Z,100338.19
2023-03-16T17:24:46.104Z,100343.22
2023-03-16T17:27:29.639Z,100347.28
2023-03-16T17:30:08.318Z,100346.59
2023-03-16T17:32:46.849Z,100351.63
2023-03-16T17:35:30.788Z,100352.94
2023-03-16T17:38:18.250Z,100349.22
2023-03-16T17:41:00.947Z,100353.13
2023-03-16T17:43:41.318Z,100355.06
2023-03-16T17:46:25.577Z,100368.97
2023-03-16T17:49:03.425Z,100369.59
2023-03-16T17:51:39.828Z,100366.66
2023-03-16T17:54:15.877Z,100366.69
2023-03-16T17:56:58.445Z,100370.97
2023-03-16T17:59:35.619Z,100370.31
2023-03-16T18:02:35.184Z,100375.31
2023-03-16T18:05:29.620Z,100373.19
2023-03-16T18:08:30.593Z,100379.78
2023-03-16T18:11:20.632Z,100398.75
2023-03-16T18:14:08.573Z,100392.13
2023-03-16T18:16:52.406Z,100393.50
2023-03-16T18:19:40.044Z,100392.38
2023-03-16T18:22:35.689Z,100402.59
2023-03-16T18:25:44.806Z,100397.00
2023-03-16T18:28:28.173Z,100402.19
2023-03-16T18:31:20.396Z,100397.75
2023-03-16T18:33:59.824Z,100406.66
2023-03-16T18:36:45.891Z,100408.13
2023-03-16T18:39:27.972Z,100405.78
2023-03-16T18:42:09.261Z,100405.19
2023-03-16T18:44:50.220Z,100418.44
2023-03-16T18:47:32.897Z,100422.41
2023-03-16T18:50:31.178Z,100425.78
2023-03-16T18:53:11.815Z,100420.78
2023-03-16T18:55:52.038Z,100443.38
2023-03-16T18:58:41.584Z,100436.31
2023-03-16T19:01:29.652Z,100441.94
2023-03-16T19:04:10.826Z,100456.75
2023-03-16T19:06:54.154Z,100458.03
2023-03-16T19:09:36.068Z,100459.44
2023-03-16T19:12:19.404Z,100466.16
2023-03-16T19:15:15.862Z,100453.00
2023-03-16T19:17:50.139Z,100464.72
2023-03-16T19:20:40.674Z,100460.22
2023-03-16T19:23:33.786Z,100477.16
2023-03-16T19:26:08.263Z,100477.47
2023-03-16T19:28:50.151Z,100480.53
2023-03-16T19:31:41.879Z,100487.56
2023-03-16T19:34:27.364Z,100490.78
2023-03-16T19:37:15.826Z,100492.31
2023-03-16T19:39:59.136Z,100497.97
2023-03-16T19:42:42.327Z,100498.47
2023-03-16T19:45:29.899Z,100508.03
2023-03-16T19:48:24.185Z,100513.38
2023-03-16T19:51:11.153Z,100518.19
2023-03-16T19:53:56.295Z,100515.81
2023-03-16T19:56:36.866Z,100525.88
2023-03-16T19:59:35.640Z,100516.50
2023-03-16T20:02:38.878Z,100524.34
2023-03-16T20:05:18.588Z,100532.06
2023-03-16T20:08:08.759Z,100529.25
2023-03-16T20:10:43.491Z,100536.75
2023-03-16T20:13:24.541Z,100538.09
2023-03-16T20:16:00.972Z,100551.50
2023-03-16T20:18:35.839Z,100551.91
2023-03-16T20:21:21.320Z,100552.56
2023-03-16T20:24:11.637Z,100547.84
2023-03-16T20:26:47.910Z,100551.25
2023-03-16T20:29:42.308Z,100552.63
2023-03-16T20:32:32.948Z,100550.75
2023-03-16T20:35:23.170Z,100560.72
2023-03-16T20:37:58.264Z,100564.25
2023-03-16T20:40:49.482Z,100569.69
2023-03-16T20:43:44.324Z,100567.28
2023-03-16T20:46:27.750Z,100571.78
2023-03-16T20:49:02.441Z,100567.28
2023-03-16T20:51:51.116Z,100572.94
2023-03-16T20:54:37.494Z,100569.63
2023-03-16T20:57:24.102Z,100565.34
2023-03-16T21:00:02.604Z,100574.09
2023-03-16T21:02:41.450Z,100578.28
2023-03-16T21:05:30.020Z,100572.97
2023-03-16T21:08:08.965Z,100578.88
2023-03-16T21:10:50.925Z,100577.63
2023-03-16T21:13:33.166Z,100575.69
2023-03-16T21:16:08.910Z,100576.94
2023-03-16T21:18:49.830Z,100576.13
2023-03-16T21:21:27.544Z,100584.44
2023-03-16T21:24:08.165Z,100580.13
2023-03-16T21:26:55.119Z,100589.28
2023-03-16T21:29:30.254Z,100582.78
2023-03-16T21:35:18.673Z,100591.22
2023-03-16T21:37:59.617Z,100594.56
2023-03-16T21:40:39.564Z,100600.34
2023-03-16T21:43:17.708Z,100599.63
2023-03-16T21:46:04.123Z,100582.88
2023-03-16T21:48:46.947Z,100588.78
2023-03-16T21:51:29.441Z,100590.56
2023-03-16T21:54:17.838Z,100584.19
2023-03-16T21:56:59.790Z,100583.50
2023-03-16T21:59:54.447Z,100593.75
2023-03-16T22:02:34.853Z,100590.50
2023-03-16T22:05:30.621Z,100599.56
2023-03-16T22:08:29.069Z,100594.03
2023-03-16T22:11:08.601Z,100593.06
2023-03-16T22:14:03.043Z,100605.72
2023-03-16T22:16:47.810Z,100601.88
2023-03-16T22:19:38.784Z,100598.84
2023-03-16T22:22:23.050Z,100597.75
2023-03-16T22:25:05.672Z,100601.34
2023-03-16T22:27:48.266Z,100597.50
2023-03-16T22:30:34.250Z,100605.78
2023-03-16T22:33:21.803Z,100606.41
2023-03-16T22:36:16.647Z,100602.41
2023-03-16T22:39:00.094Z,100602.91
2023-03-16T22:41:44.147Z,100604.69
2023-03-16T22:44:37.247Z,100602.53
2023-03-16T22:47:37.107Z,100602.50
2023-03-16T22:50:25.146Z,100602.97
2023-03-16T22:53:16.540Z,100611.50
2023-03-16T22:56:02.336Z,100611.34
2023-03-16T22:59:00.329Z,100608.53
2023-03-16T23:01:52.473Z,100610.59
2023-03-16T23:04:30.522Z,100609.75
2023-03-16T23:07:12.953Z,100605.28
2023-03-16T23:09:56.931Z,100608.19
2023-03-16T23:12:40.348Z,100614.41
2023-03-16T23:15:32.691Z,100612.16
2023-03-16T23:18:18.149Z,100615.97
2023-03-16T23:20:54.400Z,100618.03
2023-03-16T23:23:35.439Z,100612.97
2023-03-16T23:26:23.340Z,100628.19
2023-03-16T23:29:05.617Z,100632.88
2023-03-16T23:31:57.013Z,100630.75
2023-03-16T23:34:46.470Z,100635.25
2023-03-16T23:37:30.742Z,100639.81
2023-03-16T23:40:12.096Z,100643.13
2023-03-16T23:42:52.186Z,100640.69
2023-03-16T23:45:40.874Z,100638.50
2023-03-16T23:48:25.698Z,100654.56
2023-03-16T23:51:07.389Z,100643.84
2023-03-16T23:53:54.733Z,100646.38
2023-03-16T23:56:41.590Z,100642.28
2023-03-16T23:59:22.258Z,100635.19
